sensor_id;sensor_type;location;lat;lon;timestamp;pressure;altitude;pressure_sealevel;temperature;humidity
63287;BME280;49410;55.708;37.522;2022-07-17T00:00:44;99317.66;;;16.89;nan
63287;BME280;49410;55.708;37.522;2022-07-17T00:03:13;99323.41;;;16.95;nan
63287;BME280;49410;55.708;37.522;2022-07-17T00:05:40;99321.47;;;16.95;nan
63287;BME280;49410;55.708;37.522;2022-07-17T00:08:06;99338.66;;;17.04;nan
63287;BME280;49410;55.708;37.522;2022-07-17T00:10:33;99336.97;;;17.03;nan
63287;BME280;49410;55.708;37.522;2022-07-17T00:12:59;99318.28;;;16.98;nan
63287;BME280;49410;55.708;37.522;2022-07-17T00:15:24;99336.94;;;17.10;nan
63287;BME280;49410;55.708;37.522;2022-07-17T00:17:50;99333.94;;;17.11;nan
63287;BME280;49410;55.708;37.522;2022-07-17T00:20:15;99329.06;;;17.06;nan
63287;BME280;49410;55.708;37.522;2022-07-17T00:22:41;99339.66;;;17.16;nan
63287;BME280;49410;55.708;37.522;2022-07-17T00:25:09;99337.53;;;17.18;nan
63287;BME280;49410;55.708;37.522;2022-07-17T00:27:36;99330.72;;;17.14;nan
63287;BME280;49410;55.708;37.522;2022-07-17T00:30:03;99333.06;;;17.17;nan
63287;BME280;49410;55.708;37.522;2022-07-17T00:32:29;99320.59;;;17.08;nan
63287;BME280;49410;55.708;37.522;2022-07-17T00:34:55;99326.09;;;17.08;nan
63287;BME280;49410;55.708;37.522;2022-07-17T00:37:20;99329.94;;;17.07;nan
63287;BME280;49410;55.708;37.522;2022-07-17T00:39:46;99332.69;;;17.07;nan
63287;BME280;49410;55.708;37.522;2022-07-17T00:42:13;99330.81;;;17.01;nan
63287;BME280;49410;55.708;37.522;2022-07-17T00:44:40;99325.94;;;16.96;nan
63287;BME280;49410;55.708;37.522;2022-07-17T00:47:24;99332.97;;;16.92;nan
63287;BME280;49410;55.708;37.522;2022-07-17T00:49:50;99305.63;;;16.77;nan
63287;BME280;49410;55.708;37.522;2022-07-17T00:52:16;99334.88;;;16.85;nan
63287;BME280;49410;55.708;37.522;2022-07-17T00:54:43;99325.16;;;16.75;nan
63287;BME280;49410;55.708;37.522;2022-07-17T00:57:14;99313.31;;;16.68;nan
63287;BME280;49410;55.708;37.522;2022-07-17T00:59:41;99315.91;;;16.63;nan
63287;BME280;49410;55.708;37.522;2022-07-17T01:02:08;99308.06;;;16.53;nan
63287;BME280;49410;55.708;37.522;2022-07-17T01:04:36;99325.44;;;16.60;nan
63287;BME280;49410;55.708;37.522;2022-07-17T01:07:03;99332.25;;;16.58;nan
63287;BME280;49410;55.708;37.522;2022-07-17T01:09:31;99323.16;;;16.51;nan
63287;BME280;49410;55.708;37.522;2022-07-17T01:11:57;99319.38;;;16.38;nan
63287;BME280;49410;55.708;37.522;2022-07-17T01:14:24;99336.13;;;16.43;nan
63287;BME280;49410;55.708;37.522;2022-07-17T01:16:51;99319.38;;;16.32;nan
63287;BME280;49410;55.708;37.522;2022-07-17T01:19:18;99331.50;;;16.30;nan
63287;BME280;49410;55.708;37.522;2022-07-17T01:21:46;99335.31;;;16.29;nan
63287;BME280;49410;55.708;37.522;2022-07-17T01:24:13;99345.28;;;16.30;nan
63287;BME280;49410;55.708;37.522;2022-07-17T01:26:46;99334.06;;;16.25;nan
63287;BME280;49410;55.708;37.522;2022-07-17T01:29:14;99350.38;;;16.34;nan
63287;BME280;49410;55.708;37.522;2022-07-17T01:31:40;99347.63;;;16.34;nan
63287;BME280;49410;55.708;37.522;2022-07-17T01:34:07;99344.63;;;16.35;nan
63287;BME280;49410;55.708;37.522;2022-07-17T01:36:40;99336.81;;;16.32;nan
63287;BME280;49410;55.708;37.522;2022-07-17T01:39:06;99341.03;;;16.35;nan
63287;BME280;49410;55.708;37.522;2022-07-17T01:41:32;99342.91;;;16.41;nan
63287;BME280;49410;55.708;37.522;2022-07-17T01:43:58;99339.97;;;16.36;nan
63287;BME280;49410;55.708;37.522;2022-07-17T01:46:24;99352.66;;;16.43;nan
63287;BME280;49410;55.708;37.522;2022-07-17T01:48:50;99353.09;;;16.47;nan
63287;BME280;49410;55.708;37.522;2022-07-17T01:51:15;99357.34;;;16.50;nan
63287;BME280;49410;55.708;37.522;2022-07-17T01:53:41;99347.53;;;16.54;nan
63287;BME280;49410;55.708;37.522;2022-07-17T01:56:07;99337.13;;;16.56;nan
63287;BME280;49410;55.708;37.522;2022-07-17T01:58:33;99356.66;;;16.68;nan
63287;BME280;49410;55.708;37.522;2022-07-17T02:00:59;99363.63;;;16.77;nan
63287;BME280;49410;55.708;37.522;2022-07-17T02:03:24;99362.97;;;16.82;nan
63287;BME280;49410;55.708;37.522;2022-07-17T02:05:50;99355.91;;;16.86;nan
63287;BME280;49410;55.708;37.522;2022-07-17T02:08:16;99341.94;;;16.81;nan
63287;BME280;49410;55.708;37.522;2022-07-17T02:10:41;99342.56;;;16.83;nan
63287;BME280;49410;55.708;37.522;2022-07-17T02:13:07;99356.94;;;16.91;nan
63287;BME280;49410;55.708;37.522;2022-07-17T02:15:32;99355.06;;;16.92;nan
63287;BME280;49410;55.708;37.522;2022-07-17T02:17:58;99344.44;;;16.89;nan
63287;BME280;49410;55.708;37.522;2022-07-17T02:20:23;99343.38;;;16.90;nan
63287;BME280;49410;55.708;37.522;2022-07-17T02:22:49;99348.28;;;16.95;nan
63287;BME280;49410;55.708;37.522;2022-07-17T02:25:15;99351.66;;;16.90;nan
63287;BME280;49410;55.708;37.522;2022-07-17T02:27:41;99340.41;;;16.85;nan
63287;BME280;49410;55.708;37.522;2022-07-17T02:30:13;99341.44;;;16.90;nan
63287;BME280;49410;55.708;37.522;2022-07-17T02:32:40;99338.06;;;16.95;nan
63287;BME280;49410;55.708;37.522;2022-07-17T02:35:07;99353.34;;;16.98;nan
63287;BME280;49410;55.708;37.522;2022-07-17T02:37:33;99345.00;;;17.04;nan
63287;BME280;49410;55.708;37.522;2022-07-17T02:39:59;99352.19;;;17.12;nan
63287;BME280;49410;55.708;37.522;2022-07-17T02:42:27;99352.41;;;17.17;nan
63287;BME280;49410;55.708;37.522;2022-07-17T02:44:53;99349.84;;;17.16;nan
63287;BME280;49410;55.708;37.522;2022-07-17T02:47:27;99354.69;;;17.20;nan
63287;BME280;49410;55.708;37.522;2022-07-17T02:49:53;99351.25;;;17.25;nan
63287;BME280;49410;55.708;37.522;2022-07-17T02:52:19;99340.06;;;17.20;nan
63287;BME280;49410;55.708;37.522;2022-07-17T02:54:45;99343.22;;;17.23;nan
63287;BME280;49410;55.708;37.522;2022-07-17T02:57:11;99347.25;;;17.28;nan
63287;BME280;49410;55.708;37.522;2022-07-17T02:59:37;99356.09;;;17.36;nan
63287;BME280;49410;55.708;37.522;2022-07-17T03:02:03;99350.13;;;17.39;nan
63287;BME280;49410;55.708;37.522;2022-07-17T03:04:29;99359.03;;;17.42;nan
63287;BME280;49410;55.708;37.522;2022-07-17T03:06:54;99355.41;;;17.41;nan
63287;BME280;49410;55.708;37.522;2022-07-17T03:09:20;99343.13;;;17.37;nan
63287;BME280;49410;55.708;37.522;2022-07-17T03:11:45;99351.38;;;17.44;nan
63287;BME280;49410;55.708;37.522;2022-07-17T03:14:11;99352.22;;;17.44;nan
63287;BME280;49410;55.708;37.522;2022-07-17T03:16:36;99363.84;;;17.53;nan
63287;BME280;49410;55.708;37.522;2022-07-17T03:19:02;99360.63;;;17.56;nan
63287;BME280;49410;55.708;37.522;2022-07-17T03:21:28;99356.16;;;17.55;nan
63287;BME280;49410;55.708;37.522;2022-07-17T03:23:53;99337.72;;;17.49;nan
63287;BME280;49410;55.708;37.522;2022-07-17T03:26:19;99363.19;;;17.58;nan
63287;BME280;49410;55.708;37.522;2022-07-17T03:28:44;99345.97;;;17.56;nan
63287;BME280;49410;55.708;37.522;2022-07-17T03:31:10;99340.69;;;17.54;nan
63287;BME280;49410;55.708;37.522;2022-07-17T03:33:35;99356.97;;;17.62;nan
63287;BME280;49410;55.708;37.522;2022-07-17T03:36:01;99354.41;;;17.61;nan
63287;BME280;49410;55.708;37.522;2022-07-17T03:38:26;99360.38;;;17.64;nan
63287;BME280;49410;55.708;37.522;2022-07-17T03:40:52;99368.19;;;17.67;nan
63287;BME280;49410;55.708;37.522;2022-07-17T03:43:17;99357.41;;;17.59;nan
63287;BME280;49410;55.708;37.522;2022-07-17T03:45:43;99360.81;;;17.61;nan
63287;BME280;49410;55.708;37.522;2022-07-17T03:48:08;99365.47;;;17.61;nan
63287;BME280;49410;55.708;37.522;2022-07-17T03:50:34;99377.31;;;17.75;nan
63287;BME280;49410;55.708;37.522;2022-07-17T03:52:59;99371.19;;;17.91;nan
63287;BME280;49410;55.708;37.522;2022-07-17T03:55:25;99380.25;;;18.05;nan
63287;BME280;49410;55.708;37.522;2022-07-17T03:57:51;99372.50;;;17.89;nan
63287;BME280;49410;55.708;37.522;2022-07-17T04:00:16;99387.31;;;18.01;nan
63287;BME280;49410;55.708;37.522;2022-07-17T04:02:42;99378.25;;;17.87;nan
63287;BME280;49410;55.708;37.522;2022-07-17T04:05:08;99367.75;;;17.96;nan
63287;BME280;49410;55.708;37.522;2022-07-17T04:07:39;99375.28;;;18.14;nan
63287;BME280;49410;55.708;37.522;2022-07-17T04:10:06;99370.88;;;18.06;nan
63287;BME280;49410;55.708;37.522;2022-07-17T04:12:32;99372.69;;;18.19;nan
63287;BME280;49410;55.708;37.522;2022-07-17T04:14:58;99372.22;;;18.22;nan
63287;BME280;49410;55.708;37.522;2022-07-17T04:17:24;99364.94;;;18.28;nan
63287;BME280;49410;55.708;37.522;2022-07-17T04:19:50;99363.53;;;18.19;nan
63287;BME280;49410;55.708;37.522;2022-07-17T04:22:16;99373.94;;;18.23;nan
63287;BME280;49410;55.708;37.522;2022-07-17T04:24:42;99362.38;;;18.26;nan
63287;BME280;49410;55.708;37.522;2022-07-17T04:27:09;99361.47;;;18.33;nan
63287;BME280;49410;55.708;37.522;2022-07-17T04:29:34;99360.84;;;18.30;nan
63287;BME280;49410;55.708;37.522;2022-07-17T04:32:00;99358.41;;;18.41;nan
63287;BME280;49410;55.708;37.522;2022-07-17T04:34:26;99358.03;;;18.37;nan
63287;BME280;49410;55.708;37.522;2022-07-17T04:36:51;99354.56;;;18.42;nan
63287;BME280;49410;55.708;37.522;2022-07-17T04:39:17;99355.13;;;18.51;nan
63287;BME280;49410;55.708;37.522;2022-07-17T04:41:44;99353.81;;;18.53;nan
63287;BME280;49410;55.708;37.522;2022-07-17T04:44:09;99348.31;;;18.65;nan
63287;BME280;49410;55.708;37.522;2022-07-17T04:46:35;99349.63;;;18.81;nan
63287;BME280;49410;55.708;37.522;2022-07-17T04:49:00;99343.75;;;18.89;nan
63287;BME280;49410;55.708;37.522;2022-07-17T04:51:26;99341.69;;;19.03;nan
63287;BME280;49410;55.708;37.522;2022-07-17T04:53:51;99339.31;;;19.07;nan
63287;BME280;49410;55.708;37.522;2022-07-17T04:56:17;99345.50;;;19.21;nan
63287;BME280;49410;55.708;37.522;2022-07-17T04:58:42;99342.66;;;19.28;nan
63287;BME280;49410;55.708;37.522;2022-07-17T05:01:08;99333.44;;;19.15;nan
63287;BME280;49410;55.708;37.522;2022-07-17T05:03:33;99342.53;;;19.34;nan
63287;BME280;49410;55.708;37.522;2022-07-17T05:09:08;99346.63;;;19.32;nan
63287;BME280;49410;55.708;37.522;2022-07-17T05:11:33;99334.59;;;19.38;nan
63287;BME280;49410;55.708;37.522;2022-07-17T05:13:59;99453.38;;;19.53;nan
63287;BME280;49410;55.708;37.522;2022-07-17T05:21:15;99349.47;;;19.67;nan
63287;BME280;49410;55.708;37.522;2022-07-17T05:23:40;99346.59;;;19.74;nan
63287;BME280;49410;55.708;37.522;2022-07-17T05:26:06;99366.75;;;19.81;nan
63287;BME280;49410;55.708;37.522;2022-07-17T05:28:31;99357.78;;;19.55;nan
63287;BME280;49410;55.708;37.522;2022-07-17T05:30:57;99358.06;;;19.66;nan
63287;BME280;49410;55.708;37.522;2022-07-17T05:33:22;99360.00;;;19.77;nan
63287;BME280;49410;55.708;37.522;2022-07-17T05:35:48;99357.09;;;19.72;nan
63287;BME280;49410;55.708;37.522;2022-07-17T05:43:04;99468.28;;;21.20;nan
63287;BME280;49410;55.708;37.522;2022-07-17T05:47:55;99451.88;;;22.56;nan
63287;BME280;49410;55.708;37.522;2022-07-17T05:50:21;99452.28;;;23.26;nan
63287;BME280;49410;55.708;37.522;2022-07-17T05:56:27;99438.91;;;24.71;nan
63287;BME280;49410;55.708;37.522;2022-07-17T05:58:53;99437.84;;;24.82;nan
63287;BME280;49410;55.708;37.522;2022-07-17T06:01:18;99445.44;;;24.87;nan
63287;BME280;49410;55.708;37.522;2022-07-17T06:06:09;99439.25;;;24.85;nan
63287;BME280;49410;55.708;37.522;2022-07-17T06:08:35;99439.38;;;25.05;nan
63287;BME280;49410;55.708;37.522;2022-07-17T06:11:00;99446.94;;;25.10;nan
63287;BME280;49410;55.708;37.522;2022-07-17T06:13:26;99421.44;;;24.96;nan
63287;BME280;49410;55.708;37.522;2022-07-17T06:15:51;99430.78;;;25.22;nan
63287;BME280;49410;55.708;37.522;2022-07-17T06:18:16;99437.00;;;25.40;nan
63287;BME280;49410;55.708;37.522;2022-07-17T06:20:42;99430.94;;;25.64;nan
63287;BME280;49410;55.708;37.522;2022-07-17T06:25:33;99435.66;;;25.53;nan
63287;BME280;49410;55.708;37.522;2022-07-17T06:27:58;99435.28;;;25.39;nan
63287;BME280;49410;55.708;37.522;2022-07-17T06:32:49;99432.19;;;25.30;nan
63287;BME280;49410;55.708;37.522;2022-07-17T06:37:40;99427.06;;;25.11;nan
63287;BME280;49410;55.708;37.522;2022-07-17T06:40:06;99422.84;;;25.04;nan
63287;BME280;49410;55.708;37.522;2022-07-17T06:42:32;99312.66;;;25.00;nan
63287;BME280;49410;55.708;37.522;2022-07-17T06:44:58;99313.16;;;24.86;nan
63287;BME280;49410;55.708;37.522;2022-07-17T06:47:23;99315.25;;;24.58;nan
63287;BME280;49410;55.708;37.522;2022-07-17T06:49:49;99303.75;;;24.49;nan
63287;BME280;49410;55.708;37.522;2022-07-17T06:52:14;99307.34;;;24.40;nan
63287;BME280;49410;55.708;37.522;2022-07-17T06:54:40;99294.09;;;24.14;nan
63287;BME280;49410;55.708;37.522;2022-07-17T06:57:05;99312.81;;;24.19;nan
63287;BME280;49410;55.708;37.522;2022-07-17T06:59:31;99317.53;;;24.18;nan
63287;BME280;49410;55.708;37.522;2022-07-17T07:01:56;99306.13;;;24.20;nan
63287;BME280;49410;55.708;37.522;2022-07-17T07:04:22;99308.38;;;23.85;nan
63287;BME280;49410;55.708;37.522;2022-07-17T07:06:47;99316.09;;;23.78;nan
63287;BME280;49410;55.708;37.522;2022-07-17T07:09:13;99311.59;;;23.72;nan
63287;BME280;49410;55.708;37.522;2022-07-17T07:11:39;99307.78;;;23.83;nan
63287;BME280;49410;55.708;37.522;2022-07-17T07:14:05;99307.50;;;23.80;nan
63287;BME280;49410;55.708;37.522;2022-07-17T07:16:31;99308.44;;;23.63;nan
63287;BME280;49410;55.708;37.522;2022-07-17T07:18:57;99313.44;;;23.61;nan
63287;BME280;49410;55.708;37.522;2022-07-17T07:21:22;99315.22;;;23.40;nan
63287;BME280;49410;55.708;37.522;2022-07-17T07:23:49;99309.75;;;23.50;nan
63287;BME280;49410;55.708;37.522;2022-07-17T07:26:15;99296.09;;;23.21;nan
63287;BME280;49410;55.708;37.522;2022-07-17T07:28:41;99314.34;;;23.34;nan
63287;BME280;49410;55.708;37.522;2022-07-17T07:31:06;99297.81;;;23.27;nan
63287;BME280;49410;55.708;37.522;2022-07-17T07:33:32;99320.06;;;23.50;nan
63287;BME280;49410;55.708;37.522;2022-07-17T07:35:58;99319.84;;;23.56;nan
63287;BME280;49410;55.708;37.522;2022-07-17T07:38:24;99301.47;;;23.61;nan
63287;BME280;49410;55.708;37.522;2022-07-17T07:40:49;99294.47;;;23.58;nan
63287;BME280;49410;55.708;37.522;2022-07-17T07:43:15;99299.97;;;23.48;nan
63287;BME280;49410;55.708;37.522;2022-07-17T07:45:40;99298.72;;;23.11;nan
63287;BME280;49410;55.708;37.522;2022-07-17T07:48:06;99284.56;;;22.90;nan
63287;BME280;49410;55.708;37.522;2022-07-17T07:50:31;99303.88;;;22.75;nan
63287;BME280;49410;55.708;37.522;2022-07-17T07:52:57;99309.34;;;22.87;nan
63287;BME280;49410;55.708;37.522;2022-07-17T07:55:22;99303.53;;;23.16;nan
63287;BME280;49410;55.708;37.522;2022-07-17T07:57:48;99298.78;;;23.44;nan
63287;BME280;49410;55.708;37.522;2022-07-17T08:00:17;99308.81;;;23.72;nan
63287;BME280;49410;55.708;37.522;2022-07-17T08:02:42;99307.13;;;24.03;nan
63287;BME280;49410;55.708;37.522;2022-07-17T08:05:08;99312.59;;;24.31;nan
63287;BME280;49410;55.708;37.522;2022-07-17T08:07:35;99292.03;;;24.53;nan
63287;BME280;49410;55.708;37.522;2022-07-17T08:10:02;99308.94;;;24.73;nan
63287;BME280;49410;55.708;37.522;2022-07-17T08:12:28;99322.38;;;24.81;nan
63287;BME280;49410;55.708;37.522;2022-07-17T08:14:54;99311.97;;;24.18;nan
63287;BME280;49410;55.708;37.522;2022-07-17T08:17:19;99311.88;;;24.03;nan
63287;BME280;49410;55.708;37.522;2022-07-17T08:19:45;99318.69;;;23.52;nan
63287;BME280;49410;55.708;37.522;2022-07-17T08:22:11;99324.69;;;23.39;nan
63287;BME280;49410;55.708;37.522;2022-07-17T08:24:37;99325.44;;;23.07;nan
63287;BME280;49410;55.708;37.522;2022-07-17T08:27:03;99317.63;;;22.82;nan
63287;BME280;49410;55.708;37.522;2022-07-17T08:29:29;99327.88;;;22.76;nan
63287;BME280;49410;55.708;37.522;2022-07-17T08:31:54;99323.53;;;22.63;nan
63287;BME280;49410;55.708;37.522;2022-07-17T08:34:20;99335.63;;;22.34;nan
63287;BME280;49410;55.708;37.522;2022-07-17T08:36:47;99329.69;;;22.26;nan
63287;BME280;49410;55.708;37.522;2022-07-17T08:39:12;99319.72;;;22.30;nan
63287;BME280;49410;55.708;37.522;2022-07-17T08:41:38;99335.31;;;22.31;nan
63287;BME280;49410;55.708;37.522;2022-07-17T08:44:08;99332.84;;;22.34;nan
63287;BME280;49410;55.708;37.522;2022-07-17T08:46:38;99312.19;;;22.47;nan
63287;BME280;49410;55.708;37.522;2022-07-17T08:49:06;99322.84;;;22.73;nan
63287;BME280;49410;55.708;37.522;2022-07-17T08:51:33;99307.06;;;22.84;nan
63287;BME280;49410;55.708;37.522;2022-07-17T08:53:59;99329.56;;;22.99;nan
63287;BME280;49410;55.708;37.522;2022-07-17T08:56:27;99315.25;;;23.18;nan
63287;BME280;49410;55.708;37.522;2022-07-17T08:58:53;99316.19;;;23.01;nan
63287;BME280;49410;55.708;37.522;2022-07-17T09:01:21;99323.41;;;22.97;nan
63287;BME280;49410;55.708;37.522;2022-07-17T09:04:00;99326.63;;;23.11;nan
63287;BME280;49410;55.708;37.522;2022-07-17T09:06:30;99331.81;;;23.24;nan
63287;BME280;49410;55.708;37.522;2022-07-17T09:09:14;99338.84;;;23.32;nan
63287;BME280;49410;55.708;37.522;2022-07-17T09:14:12;99331.22;;;23.22;nan
63287;BME280;49410;55.708;37.522;2022-07-17T09:16:55;99331.13;;;23.17;nan
63287;BME280;49410;55.708;37.522;2022-07-17T09:19:26;99334.78;;;23.18;nan
63287;BME280;49410;55.708;37.522;2022-07-17T09:22:24;99347.44;;;22.81;nan
63287;BME280;49410;55.708;37.522;2022-07-17T09:24:57;99345.50;;;22.59;nan
63287;BME280;49410;55.708;37.522;2022-07-17T09:30:10;99358.09;;;22.45;nan
63287;BME280;49410;55.708;37.522;2022-07-17T09:32:41;99355.72;;;22.37;nan
63287;BME280;49410;55.708;37.522;2022-07-17T09:35:09;99345.28;;;22.44;nan
63287;BME280;49410;55.708;37.522;2022-07-17T09:37:36;99353.53;;;22.39;nan
63287;BME280;49410;55.708;37.522;2022-07-17T09:40:08;99368.81;;;22.53;nan
63287;BME280;49410;55.708;37.522;2022-07-17T09:42:34;99347.66;;;22.35;nan
63287;BME280;49410;55.708;37.522;2022-07-17T09:45:07;99351.88;;;22.21;nan
63287;BME280;49410;55.708;37.522;2022-07-17T09:47:38;99334.72;;;22.29;nan
63287;BME280;49410;55.708;37.522;2022-07-17T09:50:06;99346.44;;;22.48;nan
63287;BME280;49410;55.708;37.522;2022-07-17T09:52:34;99344.59;;;22.54;nan
63287;BME280;49410;55.708;37.522;2022-07-17T09:55:01;99340.88;;;22.70;nan
63287;BME280;49410;55.708;37.522;2022-07-17T09:57:30;99328.00;;;22.64;nan
63287;BME280;49410;55.708;37.522;2022-07-17T09:59:59;99336.63;;;22.85;nan
63287;BME280;49410;55.708;37.522;2022-07-17T10:02:26;99336.44;;;22.91;nan
63287;BME280;49410;55.708;37.522;2022-07-17T10:04:52;99348.84;;;23.06;nan
63287;BME280;49410;55.708;37.522;2022-07-17T10:07:19;99330.28;;;22.89;nan
63287;BME280;49410;55.708;37.522;2022-07-17T10:09:46;99344.97;;;23.07;nan
63287;BME280;49410;55.708;37.522;2022-07-17T10:12:13;99339.19;;;23.14;nan
63287;BME280;49410;55.708;37.522;2022-07-17T10:14:40;99324.97;;;22.88;nan
63287;BME280;49410;55.708;37.522;2022-07-17T10:17:11;99361.06;;;23.00;nan
63287;BME280;49410;55.708;37.522;2022-07-17T10:19:55;99365.72;;;22.94;nan
63287;BME280;49410;55.708;37.522;2022-07-17T10:22:22;99357.75;;;23.03;nan
63287;BME280;49410;55.708;37.522;2022-07-17T10:24:56;99341.59;;;22.83;nan
63287;BME280;49410;55.708;37.522;2022-07-17T10:27:27;99350.59;;;22.90;nan
63287;BME280;49410;55.708;37.522;2022-07-17T10:32:30;99328.03;;;23.14;nan
63287;BME280;49410;55.708;37.522;2022-07-17T10:35:02;99322.31;;;23.25;nan
63287;BME280;49410;55.708;37.522;2022-07-17T10:37:41;99321.31;;;23.37;nan
63287;BME280;49410;55.708;37.522;2022-07-17T10:45:12;99336.38;;;23.36;nan
63287;BME280;49410;55.708;37.522;2022-07-17T10:47:57;99333.44;;;23.48;nan
63287;BME280;49410;55.708;37.522;2022-07-17T10:53:28;99329.16;;;23.67;nan
63287;BME280;49410;55.708;37.522;2022-07-17T10:56:05;99324.19;;;23.75;nan
63287;BME280;49410;55.708;37.522;2022-07-17T10:58:34;99325.88;;;23.76;nan
63287;BME280;49410;55.708;37.522;2022-07-17T11:01:14;99318.41;;;23.86;nan
63287;BME280;49410;55.708;37.522;2022-07-17T11:03:43;99307.88;;;23.94;nan
63287;BME280;49410;55.708;37.522;2022-07-17T11:06:19;99303.44;;;23.98;nan
63287;BME280;49410;55.708;37.522;2022-07-17T11:08:53;99296.81;;;24.09;nan
63287;BME280;49410;55.708;37.522;2022-07-17T11:11:21;99291.53;;;24.13;nan
63287;BME280;49410;55.708;37.522;2022-07-17T11:13:48;99309.31;;;23.96;nan
63287;BME280;49410;55.708;37.522;2022-07-17T11:16:29;99292.75;;;23.89;nan
63287;BME280;49410;55.708;37.522;2022-07-17T11:18:55;99303.25;;;23.77;nan
63287;BME280;49410;55.708;37.522;2022-07-17T11:21:22;99302.16;;;23.78;nan
63287;BME280;49410;55.708;37.522;2022-07-17T11:23:54;99310.47;;;24.00;nan
63287;BME280;49410;55.708;37.522;2022-07-17T11:26:20;99307.69;;;24.00;nan
63287;BME280;49410;55.708;37.522;2022-07-17T11:28:48;99315.78;;;24.02;nan
63287;BME280;49410;55.708;37.522;2022-07-17T11:31:22;99318.97;;;23.88;nan
63287;BME280;49410;55.708;37.522;2022-07-17T11:33:51;99317.69;;;23.96;nan
63287;BME280;49410;55.708;37.522;2022-07-17T11:36:23;99307.34;;;23.97;nan
63287;BME280;49410;55.708;37.522;2022-07-17T11:38:49;99307.00;;;23.88;nan
63287;BME280;49410;55.708;37.522;2022-07-17T11:41:16;99306.31;;;23.76;nan
63287;BME280;49410;55.708;37.522;2022-07-17T11:43:43;99301.94;;;23.85;nan
63287;BME280;49410;55.708;37.522;2022-07-17T11:46:09;99311.88;;;24.03;nan
63287;BME280;49410;55.708;37.522;2022-07-17T11:48:35;99310.41;;;23.95;nan
63287;BME280;49410;55.708;37.522;2022-07-17T11:51:01;99303.22;;;24.04;nan
63287;BME280;49410;55.708;37.522;2022-07-17T11:53:31;99293.53;;;24.17;nan
63287;BME280;49410;55.708;37.522;2022-07-17T11:55:57;99303.06;;;24.27;nan
63287;BME280;49410;55.708;37.522;2022-07-17T11:58:22;99299.22;;;24.38;nan
63287;BME280;49410;55.708;37.522;2022-07-17T12:00:48;99303.88;;;24.22;nan
63287;BME280;49410;55.708;37.522;2022-07-17T12:03:13;99297.31;;;23.96;nan
63287;BME280;49410;55.708;37.522;2022-07-17T12:05:39;99291.03;;;23.83;nan
63287;BME280;49410;55.708;37.522;2022-07-17T12:08:07;99286.28;;;23.84;nan
63287;BME280;49410;55.708;37.522;2022-07-17T12:10:33;99285.53;;;23.94;nan
63287;BME280;49410;55.708;37.522;2022-07-17T12:13:04;99295.84;;;23.93;nan
63287;BME280;49410;55.708;37.522;2022-07-17T12:15:42;99294.00;;;24.04;nan
63287;BME280;49410;55.708;37.522;2022-07-17T12:18:28;99277.78;;;24.01;nan
63287;BME280;49410;55.708;37.522;2022-07-17T12:20:57;99272.19;;;23.96;nan
63287;BME280;49410;55.708;37.522;2022-07-17T12:23:41;99277.84;;;24.11;nan
63287;BME280;49410;55.708;37.522;2022-07-17T12:28:33;99280.72;;;24.22;nan
63287;BME280;49410;55.708;37.522;2022-07-17T12:31:00;99270.97;;;24.29;nan
63287;BME280;49410;55.708;37.522;2022-07-17T12:33:25;99273.72;;;24.24;nan
63287;BME280;49410;55.708;37.522;2022-07-17T12:35:51;99289.97;;;24.32;nan
63287;BME280;49410;55.708;37.522;2022-07-17T12:38:16;99276.28;;;24.26;nan
63287;BME280;49410;55.708;37.522;2022-07-17T12:40:42;99274.00;;;24.23;nan
63287;BME280;49410;55.708;37.522;2022-07-17T12:43:08;99277.91;;;24.22;nan
63287;BME280;49410;55.708;37.522;2022-07-17T12:45:34;99276.56;;;24.29;nan
63287;BME280;49410;55.708;37.522;2022-07-17T12:48:00;99286.47;;;24.04;nan
63287;BME280;49410;55.708;37.522;2022-07-17T12:50:25;99267.22;;;24.08;nan
63287;BME280;49410;55.708;37.522;2022-07-17T12:52:51;99276.81;;;24.23;nan
63287;BME280;49410;55.708;37.522;2022-07-17T12:55:17;99274.06;;;24.33;nan
63287;BME280;49410;55.708;37.522;2022-07-17T12:57:42;99273.19;;;24.27;nan
63287;BME280;49410;55.708;37.522;2022-07-17T13:00:09;99260.34;;;24.21;nan
63287;BME280;49410;55.708;37.522;2022-07-17T13:02:36;99268.44;;;24.28;nan
63287;BME280;49410;55.708;37.522;2022-07-17T13:05:01;99259.47;;;24.21;nan
63287;BME280;49410;55.708;37.522;2022-07-17T13:07:27;99254.47;;;24.23;nan
63287;BME280;49410;55.708;37.522;2022-07-17T13:09:53;99253.88;;;24.21;nan
63287;BME280;49410;55.708;37.522;2022-07-17T13:12:18;99244.16;;;24.28;nan
63287;BME280;49410;55.708;37.522;2022-07-17T13:14:44;99245.56;;;24.26;nan
63287;BME280;49410;55.708;37.522;2022-07-17T13:17:09;99259.19;;;24.17;nan
63287;BME280;49410;55.708;37.522;2022-07-17T13:19:35;99254.66;;;24.06;nan
63287;BME280;49410;55.708;37.522;2022-07-17T13:22:01;99252.03;;;23.94;nan
63287;BME280;49410;55.708;37.522;2022-07-17T13:24:29;99251.19;;;23.93;nan
63287;BME280;49410;55.708;37.522;2022-07-17T13:26:55;99240.16;;;24.09;nan
63287;BME280;49410;55.708;37.522;2022-07-17T13:29:21;99248.19;;;24.00;nan
63287;BME280;49410;55.708;37.522;2022-07-17T13:31:47;99260.34;;;23.88;nan
63287;BME280;49410;55.708;37.522;2022-07-17T13:34:12;99255.75;;;24.04;nan
63287;BME280;49410;55.708;37.522;2022-07-17T13:36:38;99256.91;;;24.09;nan
63287;BME280;49410;55.708;37.522;2022-07-17T13:39:04;99244.41;;;23.84;nan
63287;BME280;49410;55.708;37.522;2022-07-17T13:41:30;99267.63;;;23.89;nan
63287;BME280;49410;55.708;37.522;2022-07-17T13:43:56;99260.34;;;23.83;nan
63287;BME280;49410;55.708;37.522;2022-07-17T13:46:22;99274.13;;;23.95;nan
63287;BME280;49410;55.708;37.522;2022-07-17T13:48:47;99275.19;;;23.94;nan
63287;BME280;49410;55.708;37.522;2022-07-17T13:51:13;99280.78;;;23.94;nan
63287;BME280;49410;55.708;37.522;2022-07-17T13:53:39;99280.47;;;23.85;nan
63287;BME280;49410;55.708;37.522;2022-07-17T13:56:05;99275.41;;;23.82;nan